Time;durP1;ratioP1;P1;durP2;ratioP2;P2;SDS_P1;SDS_P2;PMS_P1;PMS_P2;Temp;Humidity;BMP_temperature;BMP_pressure;BME280_temperature;BME280_humidity;BME280_pressure;Samples;Min_cycle;Max_cycle;Signal;HPM_P1;HPM_P2
2022/04/07 00:02:24;;;;;;;;;;;12.10;82.40;;;;;;5053540;28;20651;-82
2022/04/07 00:04:51;;;;;;;;;;;12.00;82.20;;;;;;5055866;28;19928;-83
2022/04/07 00:07:18;;;;;;;;;;;12.00;82.00;;;;;;5057107;28;19928;-82
2022/04/07 00:09:44;;;;;;;;;;;12.00;81.70;;;;;;5054724;28;20300;-82
2022/04/07 00:12:11;;;;;;;;;;;12.00;81.60;;;;;;5056199;28;20027;-81
2022/04/07 00:14:38;;;;;;;;;;;12.00;81.50;;;;;;5055609;28;20400;-83
2022/04/07 00:17:06;;;;;;;;;;;12.00;81.40;;;;;;5050190;28;19928;-82
2022/04/07 00:19:32;;;;;;;;;;;12.00;81.20;;;;;;5048587;28;19928;-83
2022/04/07 00:21:59;;;;;;;;;;;12.00;81.00;;;;;;5051083;28;19932;-82
2022/04/07 00:24:25;;;;;;;;;;;11.90;80.80;;;;;;5048014;28;19932;-82
2022/04/07 00:26:52;;;;;;;;;;;11.90;80.90;;;;;;5051837;28;19928;-82
2022/04/07 00:29:19;;;;;;;;;;;11.90;81.00;;;;;;5052512;28;19929;-82
2022/04/07 00:31:45;;;;;;;;;;;11.90;81.00;;;;;;5046980;28;20506;-83
2022/04/07 00:34:13;;;;;;;;;;;11.90;81.00;;;;;;5057621;28;19971;-83
2022/04/07 00:36:40;;;;;;;;;;;11.90;81.10;;;;;;5048804;28;19928;-82
2022/04/07 00:39:07;;;;;;;;;;;11.90;81.10;;;;;;5054027;28;19932;-83
2022/04/07 00:41:37;;;;;;;;;;;11.90;81.10;;;;;;5051101;28;19932;-83
2022/04/07 00:44:03;;;;;;;;;;;11.90;81.10;;;;;;5056280;28;19929;-83
2022/04/07 00:46:30;;;;;;;;;;;11.90;81.10;;;;;;5049247;28;20531;-82
2022/04/07 00:48:56;;;;;;;;;;;11.80;81.00;;;;;;5054899;28;19932;-83
2022/04/07 00:51:24;;;;;;;;;;;11.80;81.00;;;;;;5056049;28;19943;-82
2022/04/07 00:53:51;;;;;;;;;;;11.80;81.00;;;;;;5051732;28;19935;-82
2022/04/07 00:56:18;;;;;;;;;;;11.80;81.00;;;;;;5058539;28;19932;-82
2022/04/07 00:58:47;;;;;;;;;;;11.80;81.10;;;;;;5052109;28;20328;-83
2022/04/07 01:01:14;;;;;;;;;;;11.80;81.10;;;;;;5051354;28;19929;-83
2022/04/07 01:03:41;;;;;;;;;;;11.80;81.10;;;;;;5049827;28;19935;-82
2022/04/07 01:06:08;;;;;;;;;;;11.80;81.10;;;;;;5049627;28;19951;-83
2022/04/07 01:08:36;;;;;;;;;;;11.70;81.20;;;;;;5050352;28;20029;-83
2022/04/07 01:11:02;;;;;;;;;;;11.70;81.30;;;;;;5049250;28;19937;-83
2022/04/07 01:13:42;;;;;;;;;;;11.70;81.30;;;;;;5050822;28;19929;-82
2022/04/07 01:16:08;;;;;;;;;;;11.70;81.40;;;;;;5051709;28;20328;-83
2022/04/07 01:18:35;;;;;;;;;;;11.70;81.40;;;;;;5049235;28;19951;-82
2022/04/07 01:21:02;;;;;;;;;;;11.70;81.40;;;;;;5045649;28;19933;-83
2022/04/07 01:23:34;;;;;;;;;;;11.60;81.40;;;;;;5049566;28;19929;-83
2022/04/07 01:26:02;;;;;;;;;;;11.70;81.50;;;;;;5056339;28;19950;-83
2022/04/07 01:28:29;;;;;;;;;;;11.60;81.40;;;;;;5052627;28;19935;-83
2022/04/07 01:30:55;;;;;;;;;;;11.60;81.50;;;;;;5056789;28;19948;-83
2022/04/07 01:33:22;;;;;;;;;;;11.60;81.50;;;;;;5056880;28;19968;-83
2022/04/07 01:35:49;;;;;;;;;;;11.60;81.60;;;;;;5056015;28;19951;-83
2022/04/07 01:38:16;;;;;;;;;;;11.60;81.60;;;;;;5054908;28;19928;-82
2022/04/07 01:40:44;;;;;;;;;;;11.60;81.60;;;;;;5055250;28;19928;-83
2022/04/07 01:43:12;;;;;;;;;;;11.50;81.60;;;;;;5053983;28;19928;-82
2022/04/07 01:45:40;;;;;;;;;;;11.50;81.70;;;;;;5057391;28;19935;-83
2022/04/07 01:48:08;;;;;;;;;;;11.50;81.70;;;;;;5051004;28;19932;-82
2022/04/07 01:50:35;;;;;;;;;;;11.50;81.70;;;;;;5049996;28;19935;-82
2022/04/07 01:53:02;;;;;;;;;;;11.50;81.90;;;;;;5053597;28;19948;-82
2022/04/07 01:55:28;;;;;;;;;;;11.50;82.10;;;;;;5052773;28;19928;-82
2022/04/07 01:57:55;;;;;;;;;;;11.40;82.30;;;;;;5057350;28;19929;-83
2022/04/07 02:00:23;;;;;;;;;;;11.40;82.40;;;;;;5056991;28;20662;-82
2022/04/07 02:02:50;;;;;;;;;;;11.50;82.60;;;;;;5052586;28;19951;-83
2022/04/07 02:05:16;;;;;;;;;;;11.40;82.90;;;;;;5053814;28;19996;-83
2022/04/07 02:07:43;;;;;;;;;;;11.40;82.70;;;;;;5054213;28;19929;-83
2022/04/07 02:10:11;;;;;;;;;;;11.40;82.80;;;;;;5052448;28;19936;-83
2022/04/07 02:12:39;;;;;;;;;;;11.40;82.80;;;;;;5053209;28;19955;-83
2022/04/07 02:15:06;;;;;;;;;;;11.40;82.90;;;;;;5051693;28;19925;-84
2022/04/07 02:17:34;;;;;;;;;;;11.30;82.90;;;;;;5058913;28;20522;-83
2022/04/07 02:20:02;;;;;;;;;;;11.40;83.00;;;;;;5052559;28;19928;-83
2022/04/07 02:22:29;;;;;;;;;;;11.30;83.00;;;;;;5049774;28;19933;-83
2022/04/07 02:24:56;;;;;;;;;;;11.30;83.20;;;;;;5050593;28;19936;-83
2022/04/07 02:27:23;;;;;;;;;;;11.30;83.30;;;;;;5051023;28;21187;-83
2022/04/07 02:29:49;;;;;;;;;;;11.30;83.30;;;;;;5052449;28;20436;-83
2022/04/07 02:32:16;;;;;;;;;;;11.30;83.50;;;;;;5054394;28;19959;-82
2022/04/07 02:34:44;;;;;;;;;;;11.20;83.60;;;;;;5049487;28;19933;-83
2022/04/07 02:37:10;;;;;;;;;;;11.20;83.60;;;;;;5051788;28;20027;-82
2022/04/07 02:39:37;;;;;;;;;;;11.20;83.80;;;;;;5047650;28;20397;-82
2022/04/07 02:42:04;;;;;;;;;;;11.20;83.80;;;;;;5051460;28;19935;-83
2022/04/07 02:44:30;;;;;;;;;;;11.20;83.80;;;;;;5053137;28;19940;-82
2022/04/07 02:46:57;;;;;;;;;;;11.10;83.80;;;;;;5055990;28;19939;-82
2022/04/07 02:49:24;;;;;;;;;;;11.10;83.80;;;;;;5054713;28;19928;-82
2022/04/07 02:51:52;;;;;;;;;;;11.10;83.80;;;;;;5053483;28;19981;-82
2022/04/07 02:54:18;;;;;;;;;;;11.10;83.80;;;;;;5048510;28;19929;-82
2022/04/07 02:56:46;;;;;;;;;;;11.10;83.80;;;;;;5056051;28;19935;-82
2022/04/07 02:59:13;;;;;;;;;;;11.10;83.70;;;;;;5055074;28;19928;-82
2022/04/07 03:01:39;;;;;;;;;;;11.10;83.80;;;;;;5053673;28;19933;-82
2022/04/07 03:04:06;;;;;;;;;;;11.00;83.80;;;;;;5059399;28;19925;-83
2022/04/07 03:06:32;;;;;;;;;;;11.10;83.80;;;;;;5056925;28;19939;-83
2022/04/07 03:09:00;;;;;;;;;;;11.10;83.70;;;;;;5051927;28;20214;-83
2022/04/07 03:11:27;;;;;;;;;;;11.10;83.80;;;;;;5053909;28;19928;-82
2022/04/07 03:13:54;;;;;;;;;;;11.00;83.70;;;;;;5055345;28;19959;-82
2022/04/07 03:16:20;;;;;;;;;;;11.00;83.60;;;;;;5051860;28;19939;-82
2022/04/07 03:18:47;;;;;;;;;;;11.00;83.70;;;;;;5051531;28;19928;-83
2022/04/07 03:21:13;;;;;;;;;;;11.00;83.60;;;;;;5043938;28;19939;-82
2022/04/07 03:23:40;;;;;;;;;;;11.00;83.60;;;;;;5046504;28;20444;-81
2022/04/07 03:26:08;;;;;;;;;;;11.00;83.70;;;;;;5053020;28;19936;-83
2022/04/07 03:28:34;;;;;;;;;;;11.00;83.80;;;;;;5056407;28;19956;-82
2022/04/07 03:31:01;;;;;;;;;;;11.00;83.80;;;;;;5050840;28;19935;-83
2022/04/07 03:33:27;;;;;;;;;;;11.00;83.80;;;;;;5055691;28;19939;-82
2022/04/07 03:35:54;;;;;;;;;;;11.00;83.80;;;;;;5053566;28;19936;-82
2022/04/07 03:38:21;;;;;;;;;;;11.00;83.70;;;;;;5048983;28;19929;-83
2022/04/07 03:40:47;;;;;;;;;;;11.00;83.80;;;;;;5052557;28;19929;-83
2022/04/07 03:43:15;;;;;;;;;;;10.90;83.60;;;;;;5051966;28;19928;-83
2022/04/07 03:45:42;;;;;;;;;;;10.90;83.60;;;;;;5049205;28;19933;-82
2022/04/07 03:48:08;;;;;;;;;;;11.00;83.60;;;;;;5054073;28;20020;-82
2022/04/07 03:50:35;;;;;;;;;;;10.90;83.50;;;;;;5051833;28;19933;-83
2022/04/07 03:53:02;;;;;;;;;;;10.90;83.40;;;;;;5051228;28;20577;-83
2022/04/07 03:55:28;;;;;;;;;;;10.90;83.30;;;;;;5054361;28;20587;-82
2022/04/07 03:57:55;;;;;;;;;;;10.90;83.30;;;;;;5059280;28;20589;-82
2022/04/07 04:00:23;;;;;;;;;;;10.90;83.20;;;;;;5051034;28;19928;-82
2022/04/07 04:02:50;;;;;;;;;;;10.90;83.20;;;;;;5045713;28;19940;-82
2022/04/07 04:05:17;;;;;;;;;;;10.90;83.30;;;;;;5050505;28;19928;-82
2022/04/07 04:07:43;;;;;;;;;;;10.90;83.30;;;;;;5046391;28;19925;-82
2022/04/07 04:10:10;;;;;;;;;;;10.90;83.30;;;;;;5052912;28;19928;-82
2022/04/07 04:12:37;;;;;;;;;;;10.90;83.40;;;;;;5051803;28;19933;-82
2022/04/07 04:15:04;;;;;;;;;;;10.90;83.50;;;;;;5051199;28;19935;-82
2022/04/07 04:17:32;;;;;;;;;;;10.90;83.50;;;;;;5053942;28;19928;-82
2022/04/07 04:20:00;;;;;;;;;;;10.90;83.60;;;;;;5048238;28;19932;-82
2022/04/07 04:22:27;;;;;;;;;;;10.90;83.70;;;;;;5049042;28;20054;-83
2022/04/07 04:24:54;;;;;;;;;;;10.90;83.80;;;;;;5051895;28;19966;-82
2022/04/07 04:27:20;;;;;;;;;;;10.90;83.90;;;;;;5051846;28;20374;-82
2022/04/07 04:29:47;;;;;;;;;;;10.80;83.90;;;;;;5050166;28;20397;-82
2022/04/07 04:32:13;;;;;;;;;;;10.80;83.90;;;;;;5052230;28;21184;-82
2022/04/07 04:34:41;;;;;;;;;;;10.80;84.00;;;;;;5055675;28;19939;-82
2022/04/07 04:37:08;;;;;;;;;;;10.80;84.00;;;;;;5050840;28;19935;-83
2022/04/07 04:39:34;;;;;;;;;;;10.80;84.10;;;;;;5047371;28;19928;-82
2022/04/07 04:42:01;;;;;;;;;;;10.80;84.10;;;;;;5049552;28;19936;-82
2022/04/07 04:44:27;;;;;;;;;;;10.80;84.20;;;;;;5046946;28;19928;-82
2022/04/07 04:46:54;;;;;;;;;;;10.80;84.20;;;;;;5058109;28;19932;-81
2022/04/07 04:49:21;;;;;;;;;;;10.80;84.20;;;;;;5051276;28;19928;-82
2022/04/07 04:51:48;;;;;;;;;;;10.70;84.20;;;;;;5051176;28;19933;-82
2022/04/07 04:54:15;;;;;;;;;;;10.70;84.10;;;;;;5053933;28;19929;-81
2022/04/07 04:56:42;;;;;;;;;;;10.70;84.20;;;;;;5060467;28;19933;-82
2022/04/07 04:59:08;;;;;;;;;;;10.70;84.20;;;;;;5053490;28;19928;-82
2022/04/07 05:01:35;;;;;;;;;;;10.70;84.20;;;;;;5052618;28;20564;-81
2022/04/07 05:04:01;;;;;;;;;;;10.70;84.30;;;;;;5050412;28;19928;-82
2022/04/07 05:06:28;;;;;;;;;;;10.70;84.30;;;;;;5056149;28;19929;-82
2022/04/07 05:08:56;;;;;;;;;;;10.70;84.30;;;;;;5049777;28;20019;-82
2022/04/07 05:11:22;;;;;;;;;;;10.70;84.40;;;;;;5055060;28;19932;-82
2022/04/07 05:13:49;;;;;;;;;;;10.70;84.40;;;;;;5055364;28;19936;-81
2022/04/07 05:16:16;;;;;;;;;;;10.70;84.40;;;;;;5048228;28;20284;-80
2022/04/07 05:18:46;;;;;;;;;;;10.70;84.40;;;;;;5043792;28;19935;-81
2022/04/07 05:21:13;;;;;;;;;;;10.70;84.40;;;;;;5043667;28;20043;-81
2022/04/07 05:23:39;;;;;;;;;;;10.70;84.40;;;;;;5044268;28;19933;-81
2022/04/07 05:26:07;;;;;;;;;;;10.70;84.50;;;;;;5050355;28;19928;-81
2022/04/07 05:28:34;;;;;;;;;;;10.70;84.50;;;;;;5046802;28;19981;-81
2022/04/07 05:31:00;;;;;;;;;;;10.70;84.40;;;;;;5048076;28;19929;-81
2022/04/07 05:33:27;;;;;;;;;;;10.70;84.40;;;;;;5048430;28;19956;-80
2022/04/07 05:35:53;;;;;;;;;;;10.70;84.40;;;;;;5045975;28;19935;-80
2022/04/07 05:38:20;;;;;;;;;;;10.70;84.40;;;;;;5047586;28;20420;-81
2022/04/07 05:40:46;;;;;;;;;;;10.60;84.30;;;;;;5049752;28;19928;-80
2022/04/07 05:43:14;;;;;;;;;;;10.60;84.40;;;;;;5048531;28;19940;-79
2022/04/07 05:45:42;;;;;;;;;;;10.70;84.50;;;;;;5051843;28;19925;-80
2022/04/07 05:48:10;;;;;;;;;;;10.60;84.40;;;;;;5052090;28;20019;-81
2022/04/07 05:50:36;;;;;;;;;;;10.70;84.40;;;;;;5056984;28;20025;-83
2022/04/07 05:53:03;;;;;;;;;;;10.60;84.40;;;;;;5054874;28;20289;-83
2022/04/07 05:55:29;;;;;;;;;;;10.70;84.40;;;;;;5052332;28;19939;-83
2022/04/07 05:57:56;;;;;;;;;;;10.60;84.40;;;;;;5058781;28;19929;-83
2022/04/07 06:00:24;;;;;;;;;;;10.60;84.40;;;;;;5048874;28;19939;-83
2022/04/07 06:02:50;;;;;;;;;;;10.70;84.40;;;;;;5053922;28;19924;-83
2022/04/07 06:05:18;;;;;;;;;;;10.60;84.40;;;;;;5055027;28;19952;-83
2022/04/07 06:07:46;;;;;;;;;;;10.60;84.40;;;;;;5053496;28;19932;-83
2022/04/07 06:10:13;;;;;;;;;;;10.60;84.30;;;;;;5052048;28;19933;-82
2022/04/07 06:12:42;;;;;;;;;;;10.60;84.30;;;;;;5055855;28;19933;-83
2022/04/07 06:15:09;;;;;;;;;;;10.60;84.30;;;;;;5054406;28;20039;-82
2022/04/07 06:17:38;;;;;;;;;;;10.70;84.40;;;;;;5047298;28;19940;-83
2022/04/07 06:20:06;;;;;;;;;;;10.70;84.30;;;;;;5057652;28;20431;-83
2022/04/07 06:22:33;;;;;;;;;;;10.60;84.30;;;;;;5051266;28;20012;-82
2022/04/07 06:24:59;;;;;;;;;;;10.60;84.40;;;;;;5059427;28;19928;-83
2022/04/07 06:27:33;;;;;;;;;;;10.70;84.80;;;;;;5052628;28;19936;-82
2022/04/07 06:29:59;;;;;;;;;;;10.70;85.00;;;;;;5053259;28;19940;-83
2022/04/07 06:32:26;;;;;;;;;;;10.70;85.30;;;;;;5058457;28;19932;-84
2022/04/07 06:34:54;;;;;;;;;;;10.60;85.40;;;;;;5050220;28;19929;-83
2022/04/07 06:37:21;;;;;;;;;;;10.60;85.50;;;;;;5057654;28;19929;-83
2022/04/07 06:39:47;;;;;;;;;;;10.60;85.70;;;;;;5052952;28;19928;-83
2022/04/07 06:42:14;;;;;;;;;;;10.70;85.80;;;;;;5052657;28;20385;-83
2022/04/07 06:44:40;;;;;;;;;;;10.60;85.70;;;;;;5055380;28;20459;-83
2022/04/07 06:47:07;;;;;;;;;;;10.60;85.80;;;;;;5054160;28;19936;-82
2022/04/07 06:49:34;;;;;;;;;;;10.60;85.80;;;;;;5054104;28;19929;-83
2022/04/07 06:52:01;;;;;;;;;;;10.70;85.80;;;;;;5057708;28;20431;-82
2022/04/07 06:54:28;;;;;;;;;;;10.60;85.70;;;;;;5051911;28;19929;-83
2022/04/07 06:56:54;;;;;;;;;;;10.70;85.80;;;;;;5057691;28;20395;-84
2022/04/07 06:59:21;;;;;;;;;;;10.70;85.80;;;;;;5047623;28;19936;-83
2022/04/07 07:01:47;;;;;;;;;;;10.60;85.90;;;;;;5057813;28;19928;-83
2022/04/07 07:04:14;;;;;;;;;;;10.60;86.00;;;;;;5057699;28;19939;-83
2022/04/07 07:06:41;;;;;;;;;;;10.60;86.10;;;;;;5057881;28;19933;-83
2022/04/07 07:09:10;;;;;;;;;;;10.70;86.40;;;;;;5048662;28;19999;-83
2022/04/07 07:11:36;;;;;;;;;;;10.60;86.40;;;;;;5056968;28;19928;-83
2022/04/07 07:14:03;;;;;;;;;;;10.70;86.50;;;;;;5056634;28;19929;-82
2022/04/07 07:16:29;;;;;;;;;;;10.70;86.60;;;;;;5051159;28;19928;-81
2022/04/07 07:18:56;;;;;;;;;;;10.60;86.70;;;;;;5048556;28;19928;-83
2022/04/07 07:21:22;;;;;;;;;;;10.70;86.90;;;;;;5053525;28;19929;-83
2022/04/07 07:23:49;;;;;;;;;;;10.60;87.00;;;;;;5047850;28;19929;-82
2022/04/07 07:26:17;;;;;;;;;;;10.60;87.20;;;;;;5060214;28;19929;-82
2022/04/07 07:28:43;;;;;;;;;;;10.70;87.40;;;;;;5053260;28;20285;-82
2022/04/07 07:31:10;;;;;;;;;;;10.70;87.60;;;;;;5055131;28;19928;-82
2022/04/07 07:33:36;;;;;;;;;;;10.70;87.70;;;;;;5057126;28;20317;-82
2022/04/07 07:36:03;;;;;;;;;;;10.70;87.80;;;;;;5060304;28;20467;-82
2022/04/07 07:38:30;;;;;;;;;;;10.70;87.80;;;;;;5052054;28;19946;-83
2022/04/07 07:40:56;;;;;;;;;;;10.70;87.90;;;;;;5052184;28;19946;-82
2022/04/07 07:43:24;;;;;;;;;;;10.70;87.90;;;;;;5056474;28;19929;-83
2022/04/07 07:45:51;;;;;;;;;;;10.70;87.90;;;;;;5059328;28;19933;-83
2022/04/07 07:48:19;;;;;;;;;;;10.70;87.90;;;;;;5050803;28;19999;-82
2022/04/07 07:50:46;;;;;;;;;;;10.70;87.90;;;;;;5054621;28;20130;-83
2022/04/07 07:53:14;;;;;;;;;;;10.70;87.90;;;;;;5055914;28;19933;-83
2022/04/07 07:55:40;;;;;;;;;;;10.70;87.80;;;;;;5051622;28;19939;-83
2022/04/07 07:58:07;;;;;;;;;;;10.70;87.80;;;;;;5049517;28;19932;-83
2022/04/07 08:00:35;;;;;;;;;;;10.70;87.60;;;;;;5047309;28;19929;-83
2022/04/07 08:03:01;;;;;;;;;;;10.70;87.60;;;;;;5049691;28;19940;-83
2022/04/07 08:05:28;;;;;;;;;;;10.80;87.70;;;;;;5057409;28;19933;-83
2022/04/07 08:07:54;;;;;;;;;;;10.70;87.70;;;;;;5050182;28;19935;-83
2022/04/07 08:10:21;;;;;;;;;;;10.80;87.90;;;;;;5051543;28;20689;-82
2022/04/07 08:12:47;;;;;;;;;;;10.80;87.90;;;;;;5057858;28;19928;-82
2022/04/07 08:15:14;;;;;;;;;;;10.80;87.80;;;;;;5055746;28;20174;-83
2022/04/07 08:17:42;;;;;;;;;;;10.80;87.60;;;;;;5054224;28;20396;-82
2022/04/07 08:20:09;;;;;;;;;;;10.80;87.40;;;;;;5045597;28;19929;-83
2022/04/07 08:22:35;;;;;;;;;;;10.90;87.50;;;;;;5053514;28;19928;-83
2022/04/07 08:25:02;;;;;;;;;;;10.90;87.50;;;;;;5051871;28;20376;-82
2022/04/07 08:27:29;;;;;;;;;;;10.90;87.40;;;;;;5057606;28;19935;-84
2022/04/07 08:29:55;;;;;;;;;;;10.90;87.30;;;;;;5051224;28;19929;-83
2022/04/07 08:32:22;;;;;;;;;;;10.90;87.10;;;;;;5055141;28;19928;-83
2022/04/07 08:34:50;;;;;;;;;;;11.00;86.90;;;;;;5056267;28;19928;-83
2022/04/07 08:37:16;;;;;;;;;;;11.00;86.70;;;;;;5049397;28;19929;-82
2022/04/07 08:39:43;;;;;;;;;;;11.00;86.60;;;;;;5056288;28;19935;-83
2022/04/07 08:42:09;;;;;;;;;;;11.10;86.50;;;;;;5053283;28;19935;-82
2022/04/07 08:44:36;;;;;;;;;;;11.10;86.40;;;;;;5045258;28;19929;-82
2022/04/07 08:47:02;;;;;;;;;;;11.10;86.50;;;;;;5051765;28;19936;-83
2022/04/07 08:49:30;;;;;;;;;;;11.00;86.70;;;;;;5045442;28;19935;-81
2022/04/07 08:51:58;;;;;;;;;;;11.10;87.00;;;;;;5046602;28;20352;-82
2022/04/07 08:54:24;;;;;;;;;;;11.10;87.60;;;;;;5048550;28;19940;-83
2022/04/07 08:56:51;;;;;;;;;;;11.10;88.80;;;;;;5056523;28;19936;-82
2022/04/07 08:59:18;;;;;;;;;;;11.10;88.30;;;;;;5048945;28;19929;-81
2022/04/07 09:01:44;;;;;;;;;;;11.10;88.20;;;;;;5044930;28;20412;-82
2022/04/07 09:04:11;;;;;;;;;;;11.10;88.50;;;;;;5052544;28;19939;-82
2022/04/07 09:06:39;;;;;;;;;;;11.10;88.60;;;;;;5053404;28;20441;-81
2022/04/07 09:09:11;;;;;;;;;;;11.10;88.90;;;;;;5050242;28;20608;-82
2022/04/07 09:11:38;;;;;;;;;;;11.10;89.00;;;;;;5056429;28;19932;-82
2022/04/07 09:14:04;;;;;;;;;;;11.10;89.00;;;;;;5053610;28;19936;-83
2022/04/07 09:16:32;;;;;;;;;;;11.20;89.20;;;;;;5048244;28;19943;-82
2022/04/07 09:19:00;;;;;;;;;;;11.20;89.20;;;;;;5051323;28;20848;-84
2022/04/07 09:21:27;;;;;;;;;;;11.20;89.50;;;;;;5048142;28;19940;-82
2022/04/07 09:23:54;;;;;;;;;;;11.20;89.50;;;;;;5058547;28;19928;-83
2022/04/07 09:26:21;;;;;;;;;;;11.20;89.60;;;;;;5073770;28;19928;-82
2022/04/07 09:28:50;;;;;;;;;;;11.20;89.70;;;;;;5060689;28;20403;-80
2022/04/07 09:31:17;;;;;;;;;;;11.30;89.70;;;;;;5060961;28;19928;-81
2022/04/07 09:33:44;;;;;;;;;;;11.30;89.80;;;;;;5053740;28;20657;-79
2022/04/07 09:36:12;;;;;;;;;;;11.30;89.80;;;;;;5054673;28;19947;-83
2022/04/07 09:38:39;;;;;;;;;;;11.30;90.00;;;;;;5044885;28;19940;-84
2022/04/07 09:41:06;;;;;;;;;;;11.30;90.10;;;;;;5052741;28;19954;-84
2022/04/07 09:43:47;;;;;;;;;;;11.30;90.20;;;;;;5047226;28;19940;-84
2022/04/07 09:46:14;;;;;;;;;;;11.30;90.50;;;;;;5048543;28;19932;-83
2022/04/07 09:48:58;;;;;;;;;;;11.40;90.70;;;;;;5043542;28;19955;-83
2022/04/07 09:51:25;;;;;;;;;;;11.40;90.80;;;;;;5053554;28;19936;-85
2022/04/07 09:53:55;;;;;;;;;;;11.40;90.80;;;;;;5063251;28;20709;-84
2022/04/07 09:56:22;;;;;;;;;;;11.40;90.70;;;;;;5052418;28;19933;-84
2022/04/07 09:58:50;;;;;;;;;;;11.40;90.60;;;;;;5048390;28;20010;-84
2022/04/07 10:01:17;;;;;;;;;;;11.40;90.60;;;;;;5053233;28;19935;-84
2022/04/07 10:03:44;;;;;;;;;;;11.50;90.60;;;;;;5063354;28;19932;-83
2022/04/07 10:06:14;;;;;;;;;;;11.40;90.40;;;;;;5061077;28;19929;-83
2022/04/07 10:08:41;;;;;;;;;;;11.50;90.40;;;;;;5052732;28;20425;-84
2022/04/07 10:11:08;;;;;;;;;;;11.50;90.40;;;;;;5053341;28;19933;-84
2022/04/07 10:13:37;;;;;;;;;;;11.50;90.30;;;;;;5063018;28;19928;-84
2022/04/07 10:16:05;;;;;;;;;;;11.50;90.20;;;;;;5052521;28;19932;-84
2022/04/07 10:18:35;;;;;;;;;;;11.60;90.10;;;;;;5054452;28;19940;-84
2022/04/07 10:21:03;;;;;;;;;;;11.60;90.00;;;;;;5055052;28;19932;-84
2022/04/07 10:23:35;;;;;;;;;;;11.70;90.00;;;;;;5050774;28;19936;-85
2022/04/07 10:26:03;;;;;;;;;;;11.70;89.70;;;;;;5055815;28;19932;-82
2022/04/07 10:28:30;;;;;;;;;;;11.80;89.50;;;;;;5050914;28;19979;-84
2022/04/07 10:30:57;;;;;;;;;;;11.90;89.50;;;;;;5055336;28;19928;-83
2022/04/07 10:33:34;;;;;;;;;;;11.90;89.20;;;;;;5057287;28;19929;-82
2022/04/07 10:36:06;;;;;;;;;;;12.00;89.00;;;;;;5056904;28;19935;-84
2022/04/07 10:38:37;;;;;;;;;;;12.00;88.70;;;;;;5046644;28;19929;-83
2022/04/07 10:41:03;;;;;;;;;;;12.10;88.20;;;;;;5058460;28;19928;-84
2022/04/07 10:43:30;;;;;;;;;;;12.10;87.70;;;;;;5055459;28;19935;-84
2022/04/07 10:46:10;;;;;;;;;;;12.00;86.80;;;;;;5058856;28;20404;-84
2022/04/07 10:48:38;;;;;;;;;;;12.20;86.30;;;;;;5044872;28;20383;-84
2022/04/07 10:51:05;;;;;;;;;;;12.10;86.00;;;;;;5049996;28;19937;-85
2022/04/07 10:53:32;;;;;;;;;;;12.20;85.70;;;;;;5060682;28;19932;-84
2022/04/07 10:56:00;;;;;;;;;;;12.30;85.70;;;;;;5056399;28;20792;-83
2022/04/07 10:58:40;;;;;;;;;;;12.30;85.40;;;;;;5055160;28;19928;-86
2022/04/07 11:01:06;;;;;;;;;;;12.40;84.90;;;;;;5055360;28;19936;-85
2022/04/07 11:03:35;;;;;;;;;;;12.40;84.50;;;;;;5058594;28;19944;-84
2022/04/07 11:06:06;;;;;;;;;;;12.40;84.50;;;;;;5056629;28;20029;-84
2022/04/07 11:08:33;;;;;;;;;;;12.50;84.50;;;;;;5058103;28;19933;-84
2022/04/07 11:10:59;;;;;;;;;;;12.50;84.30;;;;;;5059234;28;20713;-83
2022/04/07 11:13:41;;;;;;;;;;;12.50;83.80;;;;;;5054774;28;19951;-85
2022/04/07 11:16:14;;;;;;;;;;;12.50;83.70;;;;;;5050542;28;19928;-84
2022/04/07 11:18:55;;;;;;;;;;;12.60;83.70;;;;;;5056525;28;19928;-79
2022/04/07 11:21:25;;;;;;;;;;;12.60;83.30;;;;;;5051760;28;20050;-78
2022/04/07 11:23:52;;;;;;;;;;;12.60;83.00;;;;;;5060151;28;20011;-78
2022/04/07 11:26:20;;;;;;;;;;;12.70;82.60;;;;;;5055184;28;20031;-79
2022/04/07 11:28:58;;;;;;;;;;;12.80;82.40;;;;;;5055899;28;20441;-78
2022/04/07 11:31:39;;;;;;;;;;;12.90;82.10;;;;;;5055996;28;20483;-79
2022/04/07 11:34:33;;;;;;;;;;;12.90;81.70;;;;;;5060477;28;19928;-79
2022/04/07 11:37:02;;;;;;;;;;;13.00;81.60;;;;;;5057757;28;19932;-79
2022/04/07 11:39:31;;;;;;;;;;;13.00;81.60;;;;;;5052102;28;19931;-79
2022/04/07 11:41:59;;;;;;;;;;;13.10;81.60;;;;;;5059089;28;19929;-79
2022/04/07 11:44:26;;;;;;;;;;;13.20;81.70;;;;;;5055310;28;19928;-79
2022/04/07 11:46:53;;;;;;;;;;;13.30;81.90;;;;;;5061969;28;19939;-79
2022/04/07 11:49:20;;;;;;;;;;;13.30;81.60;;;;;;5048042;28;20316;-79
2022/04/07 11:51:47;;;;;;;;;;;13.30;81.70;;;;;;5053254;28;20420;-78
2022/04/07 11:54:17;;;;;;;;;;;13.30;81.60;;;;;;5057723;28;19939;-78
2022/04/07 11:56:44;;;;;;;;;;;13.40;81.60;;;;;;5055334;28;19939;-79
2022/04/07 11:59:11;;;;;;;;;;;13.40;81.50;;;;;;5055472;28;20019;-78
2022/04/07 12:01:38;;;;;;;;;;;13.40;81.30;;;;;;5053974;28;19933;-78
2022/04/07 12:04:06;;;;;;;;;;;13.40;81.10;;;;;;5055164;28;19929;-79
2022/04/07 12:06:33;;;;;;;;;;;13.40;80.80;;;;;;5056657;28;20281;-78
2022/04/07 12:09:01;;;;;;;;;;;13.40;80.70;;;;;;5053344;28;19928;-79
2022/04/07 12:11:30;;;;;;;;;;;13.50;80.80;;;;;;5058911;28;19935;-79
2022/04/07 12:13:57;;;;;;;;;;;13.40;80.80;;;;;;5054126;28;20371;-79
2022/04/07 12:16:25;;;;;;;;;;;13.50;81.00;;;;;;5056184;28;19948;-79
2022/04/07 12:18:54;;;;;;;;;;;13.40;80.90;;;;;;5057109;28;19947;-79
2022/04/07 12:21:21;;;;;;;;;;;13.50;80.90;;;;;;5057919;28;20636;-78
2022/04/07 12:23:49;;;;;;;;;;;13.50;81.00;;;;;;5062033;28;20911;-78
2022/04/07 12:26:15;;;;;;;;;;;13.50;81.50;;;;;;5057519;28;20007;-78
2022/04/07 12:28:43;;;;;;;;;;;13.60;81.70;;;;;;5052447;28;19936;-79
2022/04/07 12:31:12;;;;;;;;;;;13.50;81.50;;;;;;5057964;28;19939;-79
2022/04/07 12:33:39;;;;;;;;;;;13.60;81.40;;;;;;5058889;28;20019;-78
2022/04/07 12:36:06;;;;;;;;;;;13.60;81.20;;;;;;5057877;28;19939;-78
2022/04/07 12:38:33;;;;;;;;;;;13.60;81.30;;;;;;5053718;28;19929;-77
2022/04/07 12:41:09;;;;;;;;;;;13.60;81.40;;;;;;5058188;28;19936;-77
2022/04/07 12:43:50;;;;;;;;;;;13.60;81.80;;;;;;5055763;28;20028;-78
2022/04/07 12:46:16;;;;;;;;;;;13.60;81.90;;;;;;5055474;28;19939;-79
2022/04/07 12:49:02;;;;;;;;;;;13.60;81.70;;;;;;5051021;28;19933;-78
2022/04/07 12:51:29;;;;;;;;;;;13.50;81.60;;;;;;5055657;28;19991;-78
2022/04/07 12:54:13;;;;;;;;;;;13.60;81.80;;;;;;5056365;28;19935;-77
2022/04/07 12:56:41;;;;;;;;;;;13.60;82.10;;;;;;5049285;28;19936;-79
2022/04/07 12:59:09;;;;;;;;;;;13.60;82.10;;;;;;5052036;28;19975;-78
2022/04/07 13:01:36;;;;;;;;;;;13.50;82.00;;;;;;5054579;28;19929;-78
2022/04/07 13:04:04;;;;;;;;;;;13.50;81.50;;;;;;5053870;28;19935;-78
2022/04/07 13:06:31;;;;;;;;;;;13.50;81.40;;;;;;5051734;28;19932;-79
2022/04/07 13:08:58;;;;;;;;;;;13.50;81.40;;;;;;5054723;28;19936;-78
2022/04/07 13:11:35;;;;;;;;;;;13.50;81.30;;;;;;5053491;28;19932;-78
2022/04/07 13:14:02;;;;;;;;;;;13.50;81.20;;;;;;5052784;28;20424;-78
2022/04/07 13:16:30;;;;;;;;;;;13.50;81.40;;;;;;5057314;28;19971;-78
2022/04/07 13:18:57;;;;;;;;;;;13.50;81.50;;;;;;5053926;28;20019;-78
2022/04/07 13:21:23;;;;;;;;;;;13.50;81.60;;;;;;5050880;28;19935;-78
2022/04/07 13:23:50;;;;;;;;;;;13.50;81.60;;;;;;5054284;28;19950;-78
2022/04/07 13:26:17;;;;;;;;;;;13.50;81.60;;;;;;5051107;28;20339;-78
2022/04/07 13:28:43;;;;;;;;;;;13.40;81.40;;;;;;5064206;28;20205;-78
2022/04/07 13:31:10;;;;;;;;;;;13.50;81.30;;;;;;5052313;28;19929;-78
2022/04/07 13:33:38;;;;;;;;;;;13.50;81.20;;;;;;5062781;28;19936;-78
2022/04/07 13:36:06;;;;;;;;;;;13.50;81.10;;;;;;5060654;28;19936;-84
2022/04/07 13:38:32;;;;;;;;;;;13.50;81.30;;;;;;5053435;28;20186;-84
2022/04/07 13:41:00;;;;;;;;;;;13.50;81.70;;;;;;5057511;28;20624;-83
2022/04/07 13:43:27;;;;;;;;;;;13.40;82.30;;;;;;5058384;28;19932;-84
2022/04/07 13:45:54;;;;;;;;;;;13.50;82.40;;;;;;5053449;28;20339;-84
2022/04/07 13:48:20;;;;;;;;;;;13.50;82.60;;;;;;5052016;28;19929;-84
2022/04/07 13:50:49;;;;;;;;;;;13.50;82.80;;;;;;5050246;28;20031;-84
2022/04/07 13:53:16;;;;;;;;;;;13.50;83.40;;;;;;5067989;28;20402;-84
2022/04/07 13:55:42;;;;;;;;;;;13.40;82.50;;;;;;5058905;28;19976;-84
2022/04/07 13:58:09;;;;;;;;;;;13.40;82.40;;;;;;5060429;28;20376;-82
2022/04/07 14:00:36;;;;;;;;;;;13.40;82.50;;;;;;5058398;28;19952;-83
2022/04/07 14:03:02;;;;;;;;;;;13.40;83.00;;;;;;5055111;28;20785;-83
2022/04/07 14:05:29;;;;;;;;;;;13.30;83.60;;;;;;5054717;28;19937;-83
2022/04/07 14:07:57;;;;;;;;;;;13.40;84.30;;;;;;5061743;28;19936;-83
2022/04/07 14:10:24;;;;;;;;;;;13.40;85.00;;;;;;5060576;28;20090;-82
2022/04/07 14:12:51;;;;;;;;;;;13.30;85.60;;;;;;5064496;28;20506;-83
2022/04/07 14:15:18;;;;;;;;;;;13.30;85.70;;;;;;5055220;28;19932;-80
2022/04/07 14:17:45;;;;;;;;;;;13.30;86.00;;;;;;5058603;28;19932;-80
2022/04/07 14:20:12;;;;;;;;;;;13.30;86.30;;;;;;5062406;28;20007;-81